sensor_id;sensor_type;location;lat;lon;timestamp;pressure;altitude;pressure_sealevel;temperature;humidity
23677;BME280;31493;49.058;12.190;2022-08-19T00:01:39;95417.09;;;19.17;100.00
23677;BME280;31493;49.058;12.190;2022-08-19T00:04:06;95401.19;;;18.88;100.00
23677;BME280;31493;49.058;12.190;2022-08-19T00:06:34;95407.66;;;19.00;100.00
23677;BME280;31493;49.058;12.190;2022-08-19T00:09:02;95415.22;;;19.03;100.00
23677;BME280;31493;49.058;12.190;2022-08-19T00:11:30;95430.69;;;18.82;100.00
23677;BME280;31493;49.058;12.190;2022-08-19T00:13:58;95419.97;;;18.99;100.00
23677;BME280;31493;49.058;12.190;2022-08-19T00:16:25;95411.91;;;19.01;100.00
23677;BME280;31493;49.058;12.190;2022-08-19T00:18:52;95420.16;;;19.21;100.00
23677;BME280;31493;49.058;12.190;2022-08-19T00:21:20;95426.78;;;19.17;100.00
23677;BME280;31493;49.058;12.190;2022-08-19T00:23:47;95440.75;;;19.09;100.00
23677;BME280;31493;49.058;12.190;2022-08-19T00:26:14;95440.63;;;19.33;100.00
23677;BME280;31493;49.058;12.190;2022-08-19T00:28:41;95468.38;;;19.28;100.00
23677;BME280;31493;49.058;12.190;2022-08-19T00:31:09;95452.69;;;19.43;100.00
23677;BME280;31493;49.058;12.190;2022-08-19T00:33:36;95467.50;;;19.04;100.00
23677;BME280;31493;49.058;12.190;2022-08-19T00:36:05;95466.78;;;18.79;100.00
23677;BME280;31493;49.058;12.190;2022-08-19T00:38:32;95478.84;;;18.97;100.00
23677;BME280;31493;49.058;12.190;2022-08-19T00:40:59;95468.25;;;18.74;100.00
23677;BME280;31493;49.058;12.190;2022-08-19T00:43:26;95467.50;;;18.96;100.00
23677;BME280;31493;49.058;12.190;2022-08-19T00:45:53;95481.03;;;18.77;100.00
23677;BME280;31493;49.058;12.190;2022-08-19T00:48:21;95481.38;;;18.74;100.00
23677;BME280;31493;49.058;12.190;2022-08-19T00:50:49;95483.81;;;18.75;100.00
23677;BME280;31493;49.058;12.190;2022-08-19T00:53:19;95503.66;;;18.62;100.00
23677;BME280;31493;49.058;12.190;2022-08-19T00:55:46;95503.84;;;18.60;100.00
23677;BME280;31493;49.058;12.190;2022-08-19T00:58:15;95503.84;;;18.60;100.00
23677;BME280;31493;49.058;12.190;2022-08-19T01:00:43;95489.56;;;18.63;100.00
23677;BME280;31493;49.058;12.190;2022-08-19T01:03:11;95487.44;;;18.74;100.00
23677;BME280;31493;49.058;12.190;2022-08-19T01:05:39;95499.09;;;18.56;100.00
23677;BME280;31493;49.058;12.190;2022-08-19T01:08:07;95507.41;;;18.59;100.00
23677;BME280;31493;49.058;12.190;2022-08-19T01:10:36;95513.31;;;18.69;100.00
23677;BME280;31493;49.058;12.190;2022-08-19T01:13:05;95507.28;;;18.69;100.00
23677;BME280;31493;49.058;12.190;2022-08-19T01:15:32;95507.84;;;19.03;100.00
23677;BME280;31493;49.058;12.190;2022-08-19T01:18:01;95531.59;;;19.02;100.00
23677;BME280;31493;49.058;12.190;2022-08-19T01:20:30;95532.03;;;19.22;100.00
23677;BME280;31493;49.058;12.190;2022-08-19T01:23:00;95535.91;;;19.34;100.00
23677;BME280;31493;49.058;12.190;2022-08-19T01:25:28;95523.28;;;19.69;100.00
23677;BME280;31493;49.058;12.190;2022-08-19T01:27:55;95511.03;;;19.61;100.00
23677;BME280;31493;49.058;12.190;2022-08-19T01:30:24;95505.25;;;19.66;100.00
23677;BME280;31493;49.058;12.190;2022-08-19T01:32:51;95492.28;;;19.64;100.00
23677;BME280;31493;49.058;12.190;2022-08-19T01:35:18;95507.28;;;19.16;100.00
23677;BME280;31493;49.058;12.190;2022-08-19T01:37:46;95508.66;;;19.04;100.00
23677;BME280;31493;49.058;12.190;2022-08-19T01:40:15;95508.28;;;19.07;100.00
23677;BME280;31493;49.058;12.190;2022-08-19T01:42:42;95532.47;;;18.78;100.00
23677;BME280;31493;49.058;12.190;2022-08-19T01:45:09;95520.00;;;18.88;100.00
23677;BME280;31493;49.058;12.190;2022-08-19T01:47:36;95523.75;;;18.94;100.00
23677;BME280;31493;49.058;12.190;2022-08-19T01:50:03;95511.66;;;18.76;100.00
23677;BME280;31493;49.058;12.190;2022-08-19T01:52:30;95504.94;;;18.82;100.00
23677;BME280;31493;49.058;12.190;2022-08-19T01:54:57;95501.63;;;18.88;100.00
23677;BME280;31493;49.058;12.190;2022-08-19T01:57:25;95505.13;;;18.64;100.00
23677;BME280;31493;49.058;12.190;2022-08-19T01:59:52;95497.91;;;18.66;100.00
23677;BME280;31493;49.058;12.190;2022-08-19T02:02:19;95514.00;;;18.55;100.00
23677;BME280;31493;49.058;12.190;2022-08-19T02:04:46;95500.56;;;18.50;100.00
23677;BME280;31493;49.058;12.190;2022-08-19T02:07:13;95509.06;;;18.60;100.00
23677;BME280;31493;49.058;12.190;2022-08-19T02:09:40;95496.94;;;18.59;100.00
23677;BME280;31493;49.058;12.190;2022-08-19T02:12:07;95514.47;;;18.75;100.00
23677;BME280;31493;49.058;12.190;2022-08-19T02:14:35;95520.69;;;18.74;100.00
23677;BME280;31493;49.058;12.190;2022-08-19T02:17:02;95519.81;;;18.90;100.00
23677;BME280;31493;49.058;12.190;2022-08-19T02:19:29;95512.66;;;19.23;100.00
23677;BME280;31493;49.058;12.190;2022-08-19T02:21:57;95497.75;;;19.23;100.00
23677;BME280;31493;49.058;12.190;2022-08-19T02:24:24;95501.25;;;19.39;100.00
23677;BME280;31493;49.058;12.190;2022-08-19T02:26:50;95504.31;;;19.58;100.00
23677;BME280;31493;49.058;12.190;2022-08-19T02:29:17;95511.16;;;19.28;100.00
23677;BME280;31493;49.058;12.190;2022-08-19T02:31:46;95519.38;;;19.56;100.00
23677;BME280;31493;49.058;12.190;2022-08-19T02:34:13;95501.09;;;19.40;100.00
23677;BME280;31493;49.058;12.190;2022-08-19T02:36:39;95506.34;;;19.40;100.00
23677;BME280;31493;49.058;12.190;2022-08-19T02:39:06;95500.63;;;19.37;100.00
23677;BME280;31493;49.058;12.190;2022-08-19T02:41:32;95498.94;;;19.13;100.00
23677;BME280;31493;49.058;12.190;2022-08-19T02:44:00;95491.75;;;19.06;100.00
23677;BME280;31493;49.058;12.190;2022-08-19T02:46:28;95480.50;;;19.21;100.00
23677;BME280;31493;49.058;12.190;2022-08-19T02:48:57;95489.75;;;19.17;100.00
23677;BME280;31493;49.058;12.190;2022-08-19T02:51:25;95495.38;;;19.37;100.00
23677;BME280;31493;49.058;12.190;2022-08-19T02:53:52;95495.44;;;19.20;100.00
23677;BME280;31493;49.058;12.190;2022-08-19T02:56:19;95498.13;;;19.12;100.00
23677;BME280;31493;49.058;12.190;2022-08-19T02:58:46;95486.94;;;19.18;100.00
23677;BME280;31493;49.058;12.190;2022-08-19T03:01:20;95487.53;;;18.97;100.00
23677;BME280;31493;49.058;12.190;2022-08-19T03:03:47;95489.78;;;19.00;100.00
23677;BME280;31493;49.058;12.190;2022-08-19T03:06:15;95490.81;;;18.91;100.00
23677;BME280;31493;49.058;12.190;2022-08-19T03:08:43;95485.47;;;19.16;100.00
23677;BME280;31493;49.058;12.190;2022-08-19T03:11:14;95491.44;;;19.01;100.00
23677;BME280;31493;49.058;12.190;2022-08-19T03:13:41;95485.25;;;19.33;100.00
23677;BME280;31493;49.058;12.190;2022-08-19T03:16:09;95501.94;;;19.41;100.00
23677;BME280;31493;49.058;12.190;2022-08-19T03:18:36;95490.03;;;19.22;100.00
23677;BME280;31493;49.058;12.190;2022-08-19T03:21:03;95496.28;;;19.52;100.00
23677;BME280;31493;49.058;12.190;2022-08-19T03:23:32;95496.56;;;19.57;100.00
23677;BME280;31493;49.058;12.190;2022-08-19T03:26:02;95482.78;;;19.63;100.00
23677;BME280;31493;49.058;12.190;2022-08-19T03:28:30;95501.88;;;19.49;100.00
23677;BME280;31493;49.058;12.190;2022-08-19T03:30:57;95519.56;;;19.55;100.00
23677;BME280;31493;49.058;12.190;2022-08-19T03:33:24;95521.84;;;19.58;100.00
23677;BME280;31493;49.058;12.190;2022-08-19T03:36:02;95531.25;;;19.44;100.00
23677;BME280;31493;49.058;12.190;2022-08-19T03:38:29;95541.97;;;19.35;100.00
23677;BME280;31493;49.058;12.190;2022-08-19T03:40:57;95548.22;;;19.33;100.00
23677;BME280;31493;49.058;12.190;2022-08-19T03:43:25;95543.78;;;19.34;100.00
23677;BME280;31493;49.058;12.190;2022-08-19T03:45:59;95542.97;;;19.33;100.00
23677;BME280;31493;49.058;12.190;2022-08-19T03:48:26;95526.19;;;19.74;100.00
23677;BME280;31493;49.058;12.190;2022-08-19T03:50:53;95518.38;;;19.66;100.00
23677;BME280;31493;49.058;12.190;2022-08-19T03:53:19;95516.59;;;19.58;100.00
23677;BME280;31493;49.058;12.190;2022-08-19T03:55:46;95514.41;;;19.70;100.00
23677;BME280;31493;49.058;12.190;2022-08-19T03:58:14;95516.75;;;19.65;100.00
23677;BME280;31493;49.058;12.190;2022-08-19T04:00:41;95524.69;;;19.48;100.00
23677;BME280;31493;49.058;12.190;2022-08-19T04:03:08;95525.38;;;19.42;100.00
23677;BME280;31493;49.058;12.190;2022-08-19T04:05:35;95541.19;;;19.57;100.00
23677;BME280;31493;49.058;12.190;2022-08-19T04:08:03;95548.78;;;19.52;100.00
23677;BME280;31493;49.058;12.190;2022-08-19T04:10:31;95558.50;;;19.43;100.00
23677;BME280;31493;49.058;12.190;2022-08-19T04:12:58;95556.81;;;19.58;100.00
23677;BME280;31493;49.058;12.190;2022-08-19T04:15:26;95556.59;;;19.68;100.00
23677;BME280;31493;49.058;12.190;2022-08-19T04:17:54;95563.03;;;19.89;100.00
23677;BME280;31493;49.058;12.190;2022-08-19T04:20:21;95550.84;;;19.73;100.00
23677;BME280;31493;49.058;12.190;2022-08-19T04:22:47;95569.94;;;19.58;100.00
23677;BME280;31493;49.058;12.190;2022-08-19T04:25:14;95574.09;;;19.76;100.00
23677;BME280;31493;49.058;12.190;2022-08-19T04:27:41;95572.47;;;19.75;100.00
23677;BME280;31493;49.058;12.190;2022-08-19T04:30:12;95581.00;;;20.08;100.00
23677;BME280;31493;49.058;12.190;2022-08-19T04:32:40;95584.25;;;20.10;100.00
23677;BME280;31493;49.058;12.190;2022-08-19T04:35:09;95587.41;;;20.05;100.00
23677;BME280;31493;49.058;12.190;2022-08-19T04:37:35;95598.03;;;19.89;100.00
23677;BME280;31493;49.058;12.190;2022-08-19T04:40:03;95584.31;;;20.02;100.00
23677;BME280;31493;49.058;12.190;2022-08-19T04:42:48;95590.97;;;19.42;100.00
23677;BME280;31493;49.058;12.190;2022-08-19T04:45:15;95578.91;;;19.25;100.00
23677;BME280;31493;49.058;12.190;2022-08-19T04:47:43;95564.78;;;19.26;100.00
23677;BME280;31493;49.058;12.190;2022-08-19T04:50:10;95561.00;;;19.37;100.00
23677;BME280;31493;49.058;12.190;2022-08-19T04:52:37;95578.28;;;19.62;100.00
23677;BME280;31493;49.058;12.190;2022-08-19T04:55:05;95583.94;;;19.43;100.00
23677;BME280;31493;49.058;12.190;2022-08-19T04:57:31;95598.03;;;19.42;100.00
23677;BME280;31493;49.058;12.190;2022-08-19T04:59:58;95587.91;;;19.30;100.00
23677;BME280;31493;49.058;12.190;2022-08-19T05:02:25;95593.41;;;19.60;100.00
23677;BME280;31493;49.058;12.190;2022-08-19T05:04:57;95590.41;;;19.94;100.00
23677;BME280;31493;49.058;12.190;2022-08-19T05:07:26;95592.00;;;19.33;100.00
23677;BME280;31493;49.058;12.190;2022-08-19T05:09:53;95601.41;;;19.11;100.00
23677;BME280;31493;49.058;12.190;2022-08-19T05:12:20;95596.88;;;19.44;100.00
23677;BME280;31493;49.058;12.190;2022-08-19T05:14:47;95608.84;;;19.47;100.00
23677;BME280;31493;49.058;12.190;2022-08-19T05:17:14;95607.06;;;19.39;100.00
23677;BME280;31493;49.058;12.190;2022-08-19T05:19:41;95608.91;;;19.30;100.00
23677;BME280;31493;49.058;12.190;2022-08-19T05:22:27;95616.47;;;19.33;100.00
23677;BME280;31493;49.058;12.190;2022-08-19T05:25:00;95627.78;;;19.26;100.00
23677;BME280;31493;49.058;12.190;2022-08-19T05:27:28;95623.28;;;19.43;100.00
23677;BME280;31493;49.058;12.190;2022-08-19T05:29:54;95621.06;;;19.23;100.00
23677;BME280;31493;49.058;12.190;2022-08-19T05:32:21;95635.81;;;19.24;100.00
23677;BME280;31493;49.058;12.190;2022-08-19T05:34:48;95618.69;;;19.53;100.00
23677;BME280;31493;49.058;12.190;2022-08-19T05:37:15;95622.13;;;19.45;100.00
23677;BME280;31493;49.058;12.190;2022-08-19T05:39:43;95639.59;;;19.22;100.00
23677;BME280;31493;49.058;12.190;2022-08-19T05:42:11;95632.25;;;19.09;100.00
23677;BME280;31493;49.058;12.190;2022-08-19T05:44:38;95634.97;;;19.32;100.00
23677;BME280;31493;49.058;12.190;2022-08-19T05:47:10;95633.47;;;19.38;100.00
23677;BME280;31493;49.058;12.190;2022-08-19T05:49:37;95627.53;;;19.60;100.00
23677;BME280;31493;49.058;12.190;2022-08-19T05:52:05;95638.41;;;19.32;100.00
23677;BME280;31493;49.058;12.190;2022-08-19T05:54:33;95619.34;;;19.47;100.00
23677;BME280;31493;49.058;12.190;2022-08-19T05:57:02;95612.44;;;19.54;100.00
23677;BME280;31493;49.058;12.190;2022-08-19T05:59:29;95630.56;;;19.24;100.00
23677;BME280;31493;49.058;12.190;2022-08-19T06:01:56;95616.06;;;19.45;100.00
23677;BME280;31493;49.058;12.190;2022-08-19T06:04:23;95625.34;;;19.16;100.00
23677;BME280;31493;49.058;12.190;2022-08-19T06:06:51;95620.53;;;19.36;100.00
23677;BME280;31493;49.058;12.190;2022-08-19T06:09:19;95630.25;;;19.19;100.00
23677;BME280;31493;49.058;12.190;2022-08-19T06:11:47;95620.09;;;19.16;100.00
23677;BME280;31493;49.058;12.190;2022-08-19T06:14:17;95626.16;;;19.17;100.00
23677;BME280;31493;49.058;12.190;2022-08-19T06:16:45;95603.66;;;19.30;100.00
23677;BME280;31493;49.058;12.190;2022-08-19T06:19:13;95624.38;;;19.09;100.00
23677;BME280;31493;49.058;12.190;2022-08-19T06:21:41;95613.16;;;19.31;100.00
23677;BME280;31493;49.058;12.190;2022-08-19T06:24:09;95624.88;;;19.04;100.00
23677;BME280;31493;49.058;12.190;2022-08-19T06:26:39;95608.13;;;19.14;100.00
23677;BME280;31493;49.058;12.190;2022-08-19T06:29:06;95607.72;;;19.41;100.00
23677;BME280;31493;49.058;12.190;2022-08-19T06:31:35;95615.63;;;19.25;100.00
23677;BME280;31493;49.058;12.190;2022-08-19T06:34:02;95609.22;;;19.36;100.00
23677;BME280;31493;49.058;12.190;2022-08-19T06:36:30;95623.19;;;19.20;100.00
23677;BME280;31493;49.058;12.190;2022-08-19T06:39:00;95627.53;;;18.88;100.00
23677;BME280;31493;49.058;12.190;2022-08-19T06:41:27;95622.94;;;18.98;100.00
23677;BME280;31493;49.058;12.190;2022-08-19T06:43:54;95625.88;;;19.03;100.00
23677;BME280;31493;49.058;12.190;2022-08-19T06:46:21;95627.44;;;19.21;100.00
23677;BME280;31493;49.058;12.190;2022-08-19T06:48:49;95627.94;;;19.24;100.00
23677;BME280;31493;49.058;12.190;2022-08-19T06:51:18;95635.81;;;19.24;100.00
23677;BME280;31493;49.058;12.190;2022-08-19T06:53:45;95632.69;;;19.21;100.00
23677;BME280;31493;49.058;12.190;2022-08-19T06:56:12;95647.66;;;19.12;100.00
23677;BME280;31493;49.058;12.190;2022-08-19T06:58:39;95641.56;;;19.28;100.00
23677;BME280;31493;49.058;12.190;2022-08-19T07:01:06;95630.66;;;19.47;100.00
23677;BME280;31493;49.058;12.190;2022-08-19T07:03:34;95640.06;;;19.33;100.00
23677;BME280;31493;49.058;12.190;2022-08-19T07:06:03;95639.91;;;19.35;100.00
23677;BME280;31493;49.058;12.190;2022-08-19T07:08:30;95624.38;;;19.17;100.00
23677;BME280;31493;49.058;12.190;2022-08-19T07:10:57;95605.16;;;19.25;100.00
23677;BME280;31493;49.058;12.190;2022-08-19T07:13:24;95593.84;;;19.24;100.00
23677;BME280;31493;49.058;12.190;2022-08-19T07:15:51;95597.59;;;19.30;100.00
23677;BME280;31493;49.058;12.190;2022-08-19T07:18:18;95601.34;;;19.36;100.00
23677;BME280;31493;49.058;12.190;2022-08-19T07:20:45;95608.22;;;19.37;100.00
23677;BME280;31493;49.058;12.190;2022-08-19T07:23:14;95613.28;;;19.46;100.00
23677;BME280;31493;49.058;12.190;2022-08-19T07:25:40;95632.34;;;19.32;100.00
23677;BME280;31493;49.058;12.190;2022-08-19T07:28:08;95622.06;;;19.22;100.00
23677;BME280;31493;49.058;12.190;2022-08-19T07:30:38;95614.59;;;19.42;100.00
23677;BME280;31493;49.058;12.190;2022-08-19T07:33:06;95633.50;;;19.29;100.00
23677;BME280;31493;49.058;12.190;2022-08-19T07:35:33;95618.31;;;19.64;100.00
23677;BME280;31493;49.058;12.190;2022-08-19T07:37:59;95618.38;;;19.87;100.00
23677;BME280;31493;49.058;12.190;2022-08-19T07:40:29;95633.91;;;19.66;100.00
23677;BME280;31493;49.058;12.190;2022-08-19T07:42:56;95653.97;;;19.42;100.00
23677;BME280;31493;49.058;12.190;2022-08-19T07:45:23;95634.28;;;19.46;100.00
23677;BME280;31493;49.058;12.190;2022-08-19T07:47:50;95647.44;;;19.30;100.00
23677;BME280;31493;49.058;12.190;2022-08-19T07:50:18;95647.91;;;19.42;100.00
23677;BME280;31493;49.058;12.190;2022-08-19T07:52:45;95641.53;;;19.36;100.00
23677;BME280;31493;49.058;12.190;2022-08-19T07:55:12;95640.03;;;19.42;100.00
23677;BME280;31493;49.058;12.190;2022-08-19T07:57:40;95641.66;;;19.43;100.00
23677;BME280;31493;49.058;12.190;2022-08-19T08:00:07;95631.63;;;19.54;100.00
23677;BME280;31493;49.058;12.190;2022-08-19T08:02:34;95635.06;;;19.55;100.00
23677;BME280;31493;49.058;12.190;2022-08-19T08:05:02;95631.81;;;19.53;100.00
23677;BME280;31493;49.058;12.190;2022-08-19T08:07:46;95623.94;;;19.45;100.00
23677;BME280;31493;49.058;12.190;2022-08-19T08:10:31;95625.88;;;19.67;100.00
23677;BME280;31493;49.058;12.190;2022-08-19T08:12:59;95624.25;;;19.50;100.00
23677;BME280;31493;49.058;12.190;2022-08-19T08:15:26;95615.69;;;19.56;100.00
23677;BME280;31493;49.058;12.190;2022-08-19T08:17:53;95625.19;;;19.57;100.00
23677;BME280;31493;49.058;12.190;2022-08-19T08:20:20;95618.50;;;19.54;100.00
23677;BME280;31493;49.058;12.190;2022-08-19T08:22:47;95613.75;;;19.58;100.00
23677;BME280;31493;49.058;12.190;2022-08-19T08:25:31;95607.31;;;19.69;100.00
23677;BME280;31493;49.058;12.190;2022-08-19T08:27:59;95609.56;;;19.80;100.00
23677;BME280;31493;49.058;12.190;2022-08-19T08:30:27;95607.34;;;19.61;100.00
23677;BME280;31493;49.058;12.190;2022-08-19T08:32:54;95604.91;;;19.90;100.00
23677;BME280;31493;49.058;12.190;2022-08-19T08:35:21;95596.72;;;19.85;100.00
23677;BME280;31493;49.058;12.190;2022-08-19T08:37:50;95594.72;;;19.95;100.00
23677;BME280;31493;49.058;12.190;2022-08-19T08:40:19;95591.63;;;20.15;100.00
23677;BME280;31493;49.058;12.190;2022-08-19T08:42:48;95596.53;;;19.86;100.00
23677;BME280;31493;49.058;12.190;2022-08-19T08:45:18;95590.53;;;20.01;100.00
23677;BME280;31493;49.058;12.190;2022-08-19T08:47:47;95598.28;;;20.02;100.00
23677;BME280;31493;49.058;12.190;2022-08-19T08:50:18;95593.25;;;20.16;100.00
23677;BME280;31493;49.058;12.190;2022-08-19T08:52:46;95590.81;;;20.14;100.00
23677;BME280;31493;49.058;12.190;2022-08-19T08:55:15;95580.56;;;20.42;100.00
23677;BME280;31493;49.058;12.190;2022-08-19T08:57:44;95569.13;;;20.35;100.00
23677;BME280;31493;49.058;12.190;2022-08-19T09:00:14;95553.09;;;20.67;100.00
23677;BME280;31493;49.058;12.190;2022-08-19T09:02:43;95546.19;;;20.66;100.00
23677;BME280;31493;49.058;12.190;2022-08-19T09:05:10;95548.16;;;20.87;100.00
23677;BME280;31493;49.058;12.190;2022-08-19T09:07:40;95565.84;;;20.56;100.00
23677;BME280;31493;49.058;12.190;2022-08-19T09:10:09;95564.09;;;20.71;100.00
23677;BME280;31493;49.058;12.190;2022-08-19T09:12:38;95577.31;;;20.63;100.00
23677;BME280;31493;49.058;12.190;2022-08-19T09:15:11;95580.75;;;20.63;100.00
23677;BME280;31493;49.058;12.190;2022-08-19T09:17:38;95584.13;;;20.72;100.00
23677;BME280;31493;49.058;12.190;2022-08-19T09:20:14;95582.34;;;20.50;100.00
23677;BME280;31493;49.058;12.190;2022-08-19T09:22:42;95578.75;;;20.43;100.00
23677;BME280;31493;49.058;12.190;2022-08-19T09:25:10;95584.91;;;20.58;100.00
23677;BME280;31493;49.058;12.190;2022-08-19T09:27:38;95584.88;;;20.81;100.00
23677;BME280;31493;49.058;12.190;2022-08-19T09:30:06;95583.06;;;20.96;100.00
23677;BME280;31493;49.058;12.190;2022-08-19T09:32:33;95595.81;;;20.70;100.00
23677;BME280;31493;49.058;12.190;2022-08-19T09:35:00;95601.00;;;20.63;100.00
23677;BME280;31493;49.058;12.190;2022-08-19T09:37:29;95585.41;;;20.76;100.00
23677;BME280;31493;49.058;12.190;2022-08-19T09:39:56;95594.41;;;20.97;100.00
23677;BME280;31493;49.058;12.190;2022-08-19T09:42:23;95594.22;;;20.83;100.00
23677;BME280;31493;49.058;12.190;2022-08-19T09:44:50;95592.00;;;20.72;100.00
23677;BME280;31493;49.058;12.190;2022-08-19T09:47:16;95594.50;;;21.03;100.00
23677;BME280;31493;49.058;12.190;2022-08-19T09:49:43;95609.56;;;20.95;100.00
23677;BME280;31493;49.058;12.190;2022-08-19T09:52:10;95603.50;;;21.09;100.00
23677;BME280;31493;49.058;12.190;2022-08-19T09:54:39;95602.69;;;21.08;100.00
23677;BME280;31493;49.058;12.190;2022-08-19T09:57:05;95606.84;;;21.03;100.00
23677;BME280;31493;49.058;12.190;2022-08-19T09:59:32;95608.50;;;21.18;100.00
23677;BME280;31493;49.058;12.190;2022-08-19T10:01:59;95612.72;;;20.90;100.00
23677;BME280;31493;49.058;12.190;2022-08-19T10:04:26;95616.09;;;20.99;100.00
23677;BME280;31493;49.058;12.190;2022-08-19T10:07:13;95617.97;;;20.75;100.00
23677;BME280;31493;49.058;12.190;2022-08-19T10:09:41;95628.72;;;21.03;100.00
23677;BME280;31493;49.058;12.190;2022-08-19T10:12:08;95629.00;;;21.08;100.00
23677;BME280;31493;49.058;12.190;2022-08-19T10:14:35;95631.53;;;20.87;100.00
23677;BME280;31493;49.058;12.190;2022-08-19T10:17:02;95627.56;;;21.06;100.00
23677;BME280;31493;49.058;12.190;2022-08-19T10:19:29;95624.88;;;20.91;100.00
23677;BME280;31493;49.058;12.190;2022-08-19T10:22:04;95617.56;;;21.01;100.00
23677;BME280;31493;49.058;12.190;2022-08-19T10:24:32;95623.41;;;21.26;99.21
23677;BME280;31493;49.058;12.190;2022-08-19T10:27:01;95622.53;;;21.49;98.66
23677;BME280;31493;49.058;12.190;2022-08-19T10:29:29;95613.16;;;21.61;98.28
23677;BME280;31493;49.058;12.190;2022-08-19T10:31:57;95610.41;;;21.54;98.52
23677;BME280;31493;49.058;12.190;2022-08-19T10:34:25;95599.69;;;21.70;98.10
23677;BME280;31493;49.058;12.190;2022-08-19T10:36:52;95602.63;;;21.46;97.50
23677;BME280;31493;49.058;12.190;2022-08-19T10:39:19;95590.63;;;21.14;99.06
23677;BME280;31493;49.058;12.190;2022-08-19T10:41:46;95591.56;;;21.51;97.85
23677;BME280;31493;49.058;12.190;2022-08-19T10:44:14;95597.16;;;21.48;98.73
23677;BME280;31493;49.058;12.190;2022-08-19T10:46:42;95591.81;;;21.26;98.88
23677;BME280;31493;49.058;12.190;2022-08-19T10:49:12;95586.09;;;21.52;97.84
23677;BME280;31493;49.058;12.190;2022-08-19T10:51:39;95588.09;;;21.50;97.91
23677;BME280;31493;49.058;12.190;2022-08-19T10:54:23;95592.47;;;21.43;98.71
23677;BME280;31493;49.058;12.190;2022-08-19T10:57:10;95584.19;;;21.46;98.20
23677;BME280;31493;49.058;12.190;2022-08-19T10:59:38;95565.78;;;21.31;97.46
23677;BME280;31493;49.058;12.190;2022-08-19T11:02:06;95584.63;;;21.64;96.57
23677;BME280;31493;49.058;12.190;2022-08-19T11:04:35;95586.22;;;21.44;98.72
23677;BME280;31493;49.058;12.190;2022-08-19T11:07:02;95595.38;;;21.33;100.00
23677;BME280;31493;49.058;12.190;2022-08-19T11:09:30;95586.22;;;21.44;98.89
23677;BME280;31493;49.058;12.190;2022-08-19T11:11:56;95579.38;;;21.20;100.00
23677;BME280;31493;49.058;12.190;2022-08-19T11:14:24;95585.25;;;21.22;100.00
23677;BME280;31493;49.058;12.190;2022-08-19T11:16:52;95586.44;;;21.19;100.00
23677;BME280;31493;49.058;12.190;2022-08-19T11:19:21;95585.38;;;21.29;100.00
23677;BME280;31493;49.058;12.190;2022-08-19T11:21:49;95580.38;;;21.34;100.00
23677;BME280;31493;49.058;12.190;2022-08-19T11:24:16;95582.75;;;21.43;100.00
23677;BME280;31493;49.058;12.190;2022-08-19T11:26:46;95600.19;;;20.92;100.00
23677;BME280;31493;49.058;12.190;2022-08-19T11:29:13;95593.94;;;20.78;100.00
23677;BME280;31493;49.058;12.190;2022-08-19T11:31:41;95591.13;;;20.80;100.00
23677;BME280;31493;49.058;12.190;2022-08-19T11:34:10;95604.53;;;20.70;100.00
23677;BME280;31493;49.058;12.190;2022-08-19T11:36:38;95590.69;;;20.53;100.00
23677;BME280;31493;49.058;12.190;2022-08-19T11:39:06;95593.41;;;20.45;100.00
23677;BME280;31493;49.058;12.190;2022-08-19T11:41:33;95605.66;;;20.53;100.00
23677;BME280;31493;49.058;12.190;2022-08-19T11:44:00;95608.06;;;20.62;100.00
23677;BME280;31493;49.058;12.190;2022-08-19T11:46:28;95606.25;;;20.63;100.00
23677;BME280;31493;49.058;12.190;2022-08-19T11:48:56;95602.59;;;20.41;100.00
23677;BME280;31493;49.058;12.190;2022-08-19T11:51:24;95607.38;;;20.37;100.00
23677;BME280;31493;49.058;12.190;2022-08-19T11:53:52;95606.69;;;20.21;100.00
23677;BME280;31493;49.058;12.190;2022-08-19T11:56:19;95600.84;;;20.33;100.00
23677;BME280;31493;49.058;12.190;2022-08-19T11:58:46;95618.59;;;20.08;100.00
23677;BME280;31493;49.058;12.190;2022-08-19T12:01:14;95612.34;;;20.09;100.00
23677;BME280;31493;49.058;12.190;2022-08-19T12:03:42;95605.97;;;20.04;100.00
23677;BME280;31493;49.058;12.190;2022-08-19T12:06:10;95596.47;;;20.03;100.00
23677;BME280;31493;49.058;12.190;2022-08-19T12:08:39;95600.13;;;19.94;100.00
23677;BME280;31493;49.058;12.190;2022-08-19T12:11:06;95600.84;;;20.10;100.00
23677;BME280;31493;49.058;12.190;2022-08-19T12:13:34;95608.59;;;20.04;100.00
23677;BME280;31493;49.058;12.190;2022-08-19T12:16:06;95590.78;;;20.45;100.00
23677;BME280;31493;49.058;12.190;2022-08-19T12:18:33;95602.06;;;20.23;100.00
23677;BME280;31493;49.058;12.190;2022-08-19T12:21:00;95609.13;;;20.22;100.00
23677;BME280;31493;49.058;12.190;2022-08-19T12:23:27;95601.59;;;20.19;100.00
23677;BME280;31493;49.058;12.190;2022-08-19T12:25:55;95605.81;;;20.28;100.00
23677;BME280;31493;49.058;12.190;2022-08-19T12:28:23;95594.69;;;20.18;100.00
23677;BME280;31493;49.058;12.190;2022-08-19T12:30:50;95593.41;;;20.45;100.00
23677;BME280;31493;49.058;12.190;2022-08-19T12:33:17;95601.78;;;20.40;100.00
23677;BME280;31493;49.058;12.190;2022-08-19T12:35:45;95599.81;;;20.20;100.00
23677;BME280;31493;49.058;12.190;2022-08-19T12:38:12;95607.16;;;20.24;100.00
23677;BME280;31493;49.058;12.190;2022-08-19T12:40:40;95605.56;;;20.15;100.00
23677;BME280;31493;49.058;12.190;2022-08-19T12:43:08;95601.75;;;20.26;100.00
23677;BME280;31493;49.058;12.190;2022-08-19T12:45:37;95610.25;;;20.28;100.00